This is the latest recevied weather packets stored in our database for station/object N6DZK. If no packets are shown the sender has not sent any weather packets the latest 10 day(s).
| Time | Temp. | Humidity | Pressure | Rain* | Wind** | Luminosity | Snow |
|---|---|---|---|---|---|---|---|
| 1777669470 | 27.22° C | 41% | 1013.7 hPa | 0 mm | - | 975 W/m² | - |
| 1777669166 | 26.67° C | 43% | 1013.6 hPa | 0 mm | - | 976 W/m² | - |
| 1777668863 | 27.22° C | 42% | 1013.8 hPa | 0 mm | - | 993 W/m² | - |
| 1777668561 | 27.22° C | 42% | 1013.9 hPa | 0 mm | - | 980 W/m² | - |
| 1777668256 | 27.22° C | 42% | 1013.7 hPa | 0 mm | - | 975 W/m² | - |
| 1777667952 | 27.78° C | 40% | 1013.9 hPa | 0 mm | - | 964 W/m² | - |
| 1777667650 | 27.22° C | 42% | 1013.8 hPa | 0 mm | - | 984 W/m² | - |
| 1777667348 | 26.67° C | 45% | 1014 hPa | 0 mm | - | 983 W/m² | - |
| 1777667044 | 26.67° C | 43% | 1014.1 hPa | 0 mm | - | 1003 W/m² | - |
| 1777666741 | 26.11° C | 44% | 1014.2 hPa | 0 mm | - | 1004 W/m² | - |
| 1777666437 | 25.56° C | 44% | 1014.2 hPa | 0 mm | - | 975 W/m² | - |
| 1777666134 | 25.56° C | 43% | 1014.3 hPa | 0 mm | - | 1003 W/m² | - |
| 1777665831 | 25° C | 46% | 1014.4 hPa | 0 mm | - | 997 W/m² | - |
| 1777665529 | 24.44° C | 49% | 1014.4 hPa | 0 mm | - | 1007 W/m² | - |
| 1777665224 | 25° C | 45% | 1014.6 hPa | 0 mm | - | 1002 W/m² | - |
| 1777664921 | 25° C | 44% | 1014.7 hPa | 0 mm | - | 957 W/m² | - |
| 1777664617 | 26.11° C | 46% | 1014.9 hPa | 0 mm | - | 983 W/m² | - |
| 1777664313 | 25° C | 48% | 1014.8 hPa | 0 mm | - | 975 W/m² | - |
| 1777664012 | 24.44° C | 52% | 1014.9 hPa | 0 mm | - | 1012 W/m² | - |
| 1777663709 | 23.33° C | 52% | 1015 hPa | 0 mm | - | 1006 W/m² | - |
| 1777663406 | 23.33° C | 51% | 1015 hPa | 0 mm | - | 995 W/m² | - |
| 1777663103 | 23.89° C | 51% | 1014.9 hPa | 0 mm | - | 974 W/m² | - |
| 1777662800 | 23.33° C | 52% | 1015.1 hPa | 0 mm | - | 974 W/m² | - |
| 1777662497 | 22.78° C | 55% | 1015.2 hPa | 0 mm | - | 974 W/m² | - |
| 1777662193 | 22.78° C | 57% | 1015.3 hPa | 0 mm | - | 976 W/m² | - |
* Rain latest hour (hover to see other rain measurements)
** Current wind speed in m/s (hover to see current wind gust speed)